createdAt,value
2023-04-23T00:05:14.735Z,4.7
2023-04-23T00:11:06.425Z,4.8
2023-04-23T00:16:58.438Z,4.9
2023-04-23T00:22:49.489Z,5.1
2023-04-23T00:28:40.464Z,5.2
2023-04-23T00:34:32.190Z,5.1
2023-04-23T00:40:08.011Z,4.9
2023-04-23T00:45:59.292Z,4.9
2023-04-23T00:51:51.337Z,4.8
2023-04-23T00:57:42.785Z,4.9
2023-04-23T01:03:34.134Z,4.8
2023-04-23T01:09:26.343Z,4.8
2023-04-23T01:15:17.629Z,4.8
2023-04-23T01:20:53.405Z,4.9
2023-04-23T01:26:44.926Z,4.9
2023-04-23T01:32:36.681Z,4.9
2023-04-23T01:38:28.118Z,4.9
2023-04-23T01:44:19.655Z,4.8
2023-04-23T01:50:14.029Z,4.8
2023-04-23T01:56:04.899Z,4.7
2023-04-23T02:01:40.365Z,4.5
2023-04-23T02:07:33.743Z,4.4
2023-04-23T02:13:25.180Z,4.4
2023-04-23T02:19:17.600Z,4.1
2023-04-23T02:25:09.715Z,3.9
2023-04-23T02:31:01.115Z,4
2023-04-23T02:36:53.012Z,4
2023-04-23T02:42:44.186Z,4
2023-04-23T02:48:35.694Z,3.9
2023-04-23T02:54:26.994Z,3.7
2023-04-23T03:00:19.035Z,3.6
2023-04-23T03:06:12.224Z,3.6
2023-04-23T03:11:48.224Z,3.6
2023-04-23T03:17:39.961Z,3.6
2023-04-23T03:23:31.230Z,3.6
2023-04-23T03:29:24.531Z,3.5
2023-04-23T03:35:16.627Z,3.6
2023-04-23T03:41:07.774Z,3.7
2023-04-23T03:46:44.195Z,3.6
2023-04-23T03:52:20.456Z,3.7
2023-04-23T03:57:56.006Z,3.9
2023-04-23T04:03:48.183Z,4
2023-04-23T04:09:42.387Z,4.1
2023-04-23T04:15:33.983Z,4.1
2023-04-23T04:21:27.414Z,4.4
2023-04-23T04:27:18.311Z,4.6
2023-04-23T04:33:09.687Z,5
2023-04-23T04:39:01.425Z,5.4
2023-04-23T04:44:53.035Z,5.6
2023-04-23T04:50:44.945Z,5.6
2023-04-23T04:56:36.277Z,5.8
2023-04-23T05:02:12.534Z,6.1
2023-04-23T05:08:05.273Z,6.3
2023-04-23T05:13:58.832Z,6.7
2023-04-23T05:19:50.630Z,7.1
2023-04-23T05:25:42.325Z,7.4
2023-04-23T05:31:34.048Z,7.9
2023-04-23T05:37:32.011Z,8.6
2023-04-23T05:43:25.044Z,9
2023-04-23T05:49:17.350Z,8.9
2023-04-23T05:55:10.760Z,8.9
2023-04-23T06:01:02.183Z,9.1
2023-04-23T06:06:43.452Z,9.6
2023-04-23T06:12:36.680Z,9.5
2023-04-23T06:18:30.159Z,10.4
2023-04-23T06:24:21.463Z,10.1
2023-04-23T06:30:13.032Z,11.1
2023-04-23T06:36:15.512Z,11.1
2023-04-23T06:42:07.014Z,10.5
2023-04-23T06:47:59.106Z,10.6
2023-04-23T06:53:51.082Z,11.3
2023-04-23T06:59:44.315Z,13.1
2023-04-23T07:05:37.525Z,13.1
2023-04-23T07:11:28.545Z,13.3
2023-04-23T07:17:20.204Z,14.1
2023-04-23T07:23:11.478Z,14.4
2023-04-23T07:29:02.373Z,13.8
2023-04-23T07:34:54.615Z,13.5
2023-04-23T07:40:48.420Z,14.3
2023-04-23T07:46:39.895Z,15.6
2023-04-23T07:52:17.230Z,15.8
2023-04-23T07:58:11.249Z,14.9
2023-04-23T08:04:03.987Z,15.6
2023-04-23T08:09:57.647Z,15.6
2023-04-23T08:15:48.822Z,15.9
2023-04-23T08:21:56.087Z,16.2
2023-04-23T08:27:47.690Z,16
2023-04-23T08:33:40.598Z,16.3
2023-04-23T08:39:28.402Z,17.8
2023-04-23T08:45:05.112Z,16
2023-04-23T08:50:41.328Z,16.5
2023-04-23T09:02:09.663Z,18.3
2023-04-23T09:07:48.076Z,17.9
2023-04-23T09:13:41.873Z,18.1
2023-04-23T09:19:32.764Z,16.5
2023-04-23T09:25:08.597Z,18.4
2023-04-23T09:30:44.711Z,18.5
2023-04-23T09:36:37.232Z,19.1
2023-04-23T09:42:13.489Z,19.6
2023-04-23T09:53:42.350Z,20.6
2023-04-23T09:59:45.721Z,19.7
2023-04-23T10:06:25.658Z,20.5
2023-04-23T10:13:28.424Z,18.8
2023-04-23T10:25:43.158Z,19.4
2023-04-23T10:31:51.394Z,21.1
2023-04-23T10:38:12.757Z,21.1
2023-04-23T10:43:49.772Z,19.8
2023-04-23T10:49:52.323Z,21.9
2023-04-23T10:56:44.244Z,19.9
2023-04-23T11:02:35.785Z,21.4
2023-04-23T11:08:38.239Z,18.6
2023-04-23T11:14:32.685Z,21.4
2023-04-23T11:20:11.107Z,20.8
2023-04-23T11:26:02.403Z,22.1
2023-04-23T11:32:02.891Z,22.4
2023-04-23T11:37:55.633Z,23
2023-04-23T11:43:32.035Z,21.9
2023-04-23T11:54:30.690Z,20.8
2023-04-23T12:00:23.741Z,22.2
2023-04-23T12:06:16.850Z,23.1
2023-04-23T12:12:17.440Z,23.5
2023-04-23T12:17:55.719Z,23.8
2023-04-23T12:23:47.225Z,23.3
2023-04-23T12:29:39.429Z,22.3
2023-04-23T12:35:31.462Z,21.6
2023-04-23T12:41:23.011Z,21
2023-04-23T12:47:14.672Z,20.8
2023-04-23T12:53:06.392Z,21
2023-04-23T12:58:58.424Z,20.4
2023-04-23T13:04:53.191Z,20.1
2023-04-23T13:10:44.622Z,20.2
2023-04-23T13:16:21.622Z,19.9
2023-04-23T13:22:15.902Z,19.8
2023-04-23T13:28:07.766Z,20.6
2023-04-23T13:39:20.324Z,20.7
2023-04-23T13:45:26.066Z,21.7
2023-04-23T13:51:32.917Z,21.9
2023-04-23T13:57:11.066Z,21.3
2023-04-23T14:03:16.268Z,20.1
2023-04-23T14:08:53.591Z,20.1
2023-04-23T14:14:30.540Z,20.5
2023-04-23T14:20:07.604Z,20.9
2023-04-23T14:26:02.255Z,20.9
2023-04-23T14:32:08.699Z,20.4
2023-04-23T14:38:15.274Z,19.9
2023-04-23T14:44:18.873Z,19.5
2023-04-23T14:55:46.638Z,18.1
2023-04-23T15:01:40.409Z,18.4
2023-04-23T15:07:33.327Z,18.4
2023-04-23T15:13:25.063Z,18.9
2023-04-23T15:19:28.366Z,19.9
2023-04-23T15:25:20.382Z,18.4
2023-04-23T15:30:56.738Z,18.3
2023-04-23T15:36:50.158Z,17.9
2023-04-23T15:42:41.335Z,17.7
2023-04-23T15:48:32.964Z,18.4
2023-04-23T15:54:25.225Z,18.4
2023-04-23T16:00:17.547Z,18.6
2023-04-23T16:06:29.085Z,18.2
2023-04-23T16:12:21.465Z,17.9
2023-04-23T16:18:13.492Z,17.7
2023-04-23T16:24:06.280Z,17.8
2023-04-23T16:30:18.030Z,17.6
2023-04-23T16:36:10.907Z,17.4
2023-04-23T16:42:01.569Z,16.9
2023-04-23T16:47:54.395Z,16.4
2023-04-23T16:53:48.389Z,16.3
2023-04-23T16:59:41.210Z,16.1
2023-04-23T17:05:36.220Z,15.8
2023-04-23T17:11:29.475Z,15.8
2023-04-23T17:17:06.976Z,15.6
2023-04-23T17:22:44.097Z,15.4
2023-04-23T17:28:37.165Z,15.4
2023-04-23T17:34:30.984Z,15.3
2023-04-23T17:40:30.930Z,14.8
2023-04-23T17:46:24.148Z,14.8
2023-04-23T17:52:20.046Z,14.6
2023-04-23T17:58:00.797Z,14.7
2023-04-23T18:03:58.166Z,14.4
2023-04-23T18:09:39.334Z,14.6
2023-04-23T18:15:17.559Z,14.4
2023-04-23T18:20:57.846Z,14.2
2023-04-23T18:26:20.240Z,14.1
2023-04-23T18:31:58.100Z,13.9
2023-04-23T18:37:49.729Z,13.8
2023-04-23T18:44:20.987Z,13.6
2023-04-23T18:49:59.767Z,13.6
2023-04-23T18:55:41.013Z,13.4
2023-04-23T19:01:34.441Z,13.1
2023-04-23T19:07:55.070Z,13.1
2023-04-23T19:13:33.202Z,12.9
2023-04-23T19:19:10.771Z,12.9
2023-04-23T19:24:48.928Z,12.6
2023-04-23T19:30:42.571Z,12.5
2023-04-23T19:36:36.070Z,12.3
2023-04-23T19:41:58.926Z,12.3
2023-04-23T19:47:52.326Z,12.2
2023-04-23T19:53:14.720Z,12.3
2023-04-23T19:59:10.014Z,12.1
2023-04-23T20:04:49.284Z,11.9
2023-04-23T20:10:26.296Z,12.1
2023-04-23T20:16:06.217Z,12
2023-04-23T20:21:29.413Z,11.9
2023-04-23T20:27:06.696Z,11.8
2023-04-23T20:32:43.812Z,11.7
2023-04-23T20:38:21.115Z,11.6
2023-04-23T20:44:12.806Z,11.5
2023-04-23T20:49:49.127Z,11.6
2023-04-23T20:55:25.037Z,11.6
2023-04-23T21:01:16.468Z,11.4
2023-04-23T21:07:10.319Z,11.4
2023-04-23T21:13:02.130Z,11.3
2023-04-23T21:18:53.978Z,11.1
2023-04-23T21:24:45.178Z,11.1
2023-04-23T21:30:39.008Z,11.1
2023-04-23T21:36:15.454Z,11.1
2023-04-23T21:42:06.805Z,11
2023-04-23T21:47:59.207Z,11.1
2023-04-23T21:53:50.909Z,10.9
2023-04-23T21:59:58.762Z,9.7
2023-04-23T22:06:11.477Z,8.9
2023-04-23T22:12:17.175Z,8.8
2023-04-23T22:18:21.758Z,9
2023-04-23T22:24:13.056Z,9.1
2023-04-23T22:30:03.347Z,9.9
2023-04-23T22:35:40.217Z,10.1
2023-04-23T22:41:33.125Z,10.3
2023-04-23T22:47:09.427Z,10.6
2023-04-23T22:52:47.621Z,10.8
2023-04-23T22:58:08.183Z,10.9
2023-04-23T23:03:44.596Z,10.9
2023-04-23T23:09:05.477Z,10.8
2023-04-23T23:14:56.556Z,10.7
2023-04-23T23:20:32.983Z,10.1
2023-04-23T23:26:24.019Z,10
2023-04-23T23:32:15.696Z,10
2023-04-23T23:38:06.770Z,10.2
2023-04-23T23:44:00.523Z,9.7
2023-04-23T23:49:52.956Z,9.6
2023-04-23T23:55:29.057Z,9.4
